sensor_id;sensor_type;location;lat;lon;timestamp;temperature;humidity
4755;DHT22;2391;47.212;7.542;2023-06-22T00:00:33;25.40;86.80
4755;DHT22;2391;47.212;7.542;2023-06-22T00:02:58;25.40;86.80
4755;DHT22;2391;47.212;7.542;2023-06-22T00:05:24;25.30;86.90
4755;DHT22;2391;47.212;7.542;2023-06-22T00:07:50;25.30;86.90
4755;DHT22;2391;47.212;7.542;2023-06-22T00:10:15;25.20;86.80
4755;DHT22;2391;47.212;7.542;2023-06-22T00:12:41;25.20;86.80
4755;DHT22;2391;47.212;7.542;2023-06-22T00:15:07;25.20;86.90
4755;DHT22;2391;47.212;7.542;2023-06-22T00:17:33;25.20;86.90
4755;DHT22;2391;47.212;7.542;2023-06-22T00:19:58;25.10;87.00
4755;DHT22;2391;47.212;7.542;2023-06-22T00:22:25;25.10;86.90
4755;DHT22;2391;47.212;7.542;2023-06-22T00:24:55;25.10;86.80
4755;DHT22;2391;47.212;7.542;2023-06-22T00:27:21;25.10;86.60
4755;DHT22;2391;47.212;7.542;2023-06-22T00:29:46;25.00;86.50
4755;DHT22;2391;47.212;7.542;2023-06-22T00:32:12;25.10;86.60
4755;DHT22;2391;47.212;7.542;2023-06-22T00:34:38;25.00;86.60
4755;DHT22;2391;47.212;7.542;2023-06-22T00:37:04;25.10;86.70
4755;DHT22;2391;47.212;7.542;2023-06-22T00:39:30;25.00;86.50
4755;DHT22;2391;47.212;7.542;2023-06-22T00:41:59;25.00;86.60
4755;DHT22;2391;47.212;7.542;2023-06-22T00:44:25;25.00;86.70
4755;DHT22;2391;47.212;7.542;2023-06-22T00:46:51;24.90;86.60
4755;DHT22;2391;47.212;7.542;2023-06-22T00:49:17;24.90;86.70
4755;DHT22;2391;47.212;7.542;2023-06-22T00:51:43;24.90;86.80
4755;DHT22;2391;47.212;7.542;2023-06-22T00:54:11;24.90;86.80
4755;DHT22;2391;47.212;7.542;2023-06-22T00:56:41;24.80;86.70
4755;DHT22;2391;47.212;7.542;2023-06-22T00:59:08;24.80;86.80
4755;DHT22;2391;47.212;7.542;2023-06-22T01:01:35;24.80;86.70
4755;DHT22;2391;47.212;7.542;2023-06-22T01:04:03;24.80;86.40
4755;DHT22;2391;47.212;7.542;2023-06-22T01:06:32;24.70;85.90
4755;DHT22;2391;47.212;7.542;2023-06-22T01:09:05;24.70;85.90
4755;DHT22;2391;47.212;7.542;2023-06-22T01:11:39;24.70;85.80
4755;DHT22;2391;47.212;7.542;2023-06-22T01:16:44;24.60;85.80
4755;DHT22;2391;47.212;7.542;2023-06-22T01:21:46;24.50;85.70
4755;DHT22;2391;47.212;7.542;2023-06-22T01:24:25;24.50;85.70
4755;DHT22;2391;47.212;7.542;2023-06-22T01:29:33;24.40;85.80
4755;DHT22;2391;47.212;7.542;2023-06-22T01:32:01;24.40;85.90
4755;DHT22;2391;47.212;7.542;2023-06-22T01:34:31;24.50;86.10
4755;DHT22;2391;47.212;7.542;2023-06-22T01:36:58;24.40;86.20
4755;DHT22;2391;47.212;7.542;2023-06-22T01:39:26;24.40;86.20
4755;DHT22;2391;47.212;7.542;2023-06-22T01:41:54;24.40;86.20
4755;DHT22;2391;47.212;7.542;2023-06-22T01:44:20;24.40;86.50
4755;DHT22;2391;47.212;7.542;2023-06-22T01:46:48;24.40;86.60
4755;DHT22;2391;47.212;7.542;2023-06-22T01:49:15;24.30;86.50
4755;DHT22;2391;47.212;7.542;2023-06-22T01:51:41;24.30;86.60
4755;DHT22;2391;47.212;7.542;2023-06-22T01:54:07;24.30;86.60
4755;DHT22;2391;47.212;7.542;2023-06-22T01:56:34;24.30;86.50
4755;DHT22;2391;47.212;7.542;2023-06-22T01:59:06;24.20;86.90
4755;DHT22;2391;47.212;7.542;2023-06-22T02:01:40;24.20;86.80
4755;DHT22;2391;47.212;7.542;2023-06-22T02:04:06;24.20;86.70
4755;DHT22;2391;47.212;7.542;2023-06-22T02:06:36;24.20;86.70
4755;DHT22;2391;47.212;7.542;2023-06-22T02:09:09;24.20;86.80
4755;DHT22;2391;47.212;7.542;2023-06-22T02:11:36;24.20;87.00
4755;DHT22;2391;47.212;7.542;2023-06-22T02:14:04;24.20;87.00
4755;DHT22;2391;47.212;7.542;2023-06-22T02:16:31;24.20;87.10
4755;DHT22;2391;47.212;7.542;2023-06-22T02:19:00;24.10;87.10
4755;DHT22;2391;47.212;7.542;2023-06-22T02:21:29;24.10;87.30
4755;DHT22;2391;47.212;7.542;2023-06-22T02:23:55;24.10;87.40
4755;DHT22;2391;47.212;7.542;2023-06-22T02:26:22;24.10;87.30
4755;DHT22;2391;47.212;7.542;2023-06-22T02:28:49;24.10;87.40
4755;DHT22;2391;47.212;7.542;2023-06-22T02:31:14;24.10;87.30
4755;DHT22;2391;47.212;7.542;2023-06-22T02:33:41;24.00;87.30
4755;DHT22;2391;47.212;7.542;2023-06-22T02:36:07;24.00;87.70
4755;DHT22;2391;47.212;7.542;2023-06-22T02:38:35;24.00;87.80
4755;DHT22;2391;47.212;7.542;2023-06-22T02:41:02;24.00;88.00
4755;DHT22;2391;47.212;7.542;2023-06-22T02:43:28;24.00;87.80
4755;DHT22;2391;47.212;7.542;2023-06-22T02:45:54;23.90;87.60
4755;DHT22;2391;47.212;7.542;2023-06-22T02:48:20;23.90;87.80
4755;DHT22;2391;47.212;7.542;2023-06-22T02:50:46;23.90;87.90
4755;DHT22;2391;47.212;7.542;2023-06-22T02:53:12;23.80;88.00
4755;DHT22;2391;47.212;7.542;2023-06-22T02:55:38;23.80;87.90
4755;DHT22;2391;47.212;7.542;2023-06-22T02:58:05;23.80;88.10
4755;DHT22;2391;47.212;7.542;2023-06-22T03:00:32;23.80;88.00
4755;DHT22;2391;47.212;7.542;2023-06-22T03:02:58;23.80;88.00
4755;DHT22;2391;47.212;7.542;2023-06-22T03:05:24;23.80;88.10
4755;DHT22;2391;47.212;7.542;2023-06-22T03:07:50;23.80;88.10
4755;DHT22;2391;47.212;7.542;2023-06-22T03:10:16;23.80;88.10
4755;DHT22;2391;47.212;7.542;2023-06-22T03:12:42;23.70;87.80
4755;DHT22;2391;47.212;7.542;2023-06-22T03:15:10;23.70;88.20
4755;DHT22;2391;47.212;7.542;2023-06-22T03:17:37;23.70;88.40
4755;DHT22;2391;47.212;7.542;2023-06-22T03:20:06;23.60;88.30
4755;DHT22;2391;47.212;7.542;2023-06-22T03:22:33;23.60;88.30
4755;DHT22;2391;47.212;7.542;2023-06-22T03:24:59;23.60;88.20
4755;DHT22;2391;47.212;7.542;2023-06-22T03:27:25;23.60;88.30
4755;DHT22;2391;47.212;7.542;2023-06-22T03:29:50;23.60;88.30
4755;DHT22;2391;47.212;7.542;2023-06-22T03:32:16;23.60;88.50
4755;DHT22;2391;47.212;7.542;2023-06-22T03:34:42;23.60;88.30
4755;DHT22;2391;47.212;7.542;2023-06-22T03:37:10;23.50;88.20
4755;DHT22;2391;47.212;7.542;2023-06-22T03:39:37;23.50;88.40
4755;DHT22;2391;47.212;7.542;2023-06-22T03:42:03;23.50;88.60
4755;DHT22;2391;47.212;7.542;2023-06-22T03:44:29;23.50;88.60
4755;DHT22;2391;47.212;7.542;2023-06-22T03:46:55;23.50;88.40
4755;DHT22;2391;47.212;7.542;2023-06-22T03:49:21;23.40;88.70
4755;DHT22;2391;47.212;7.542;2023-06-22T03:51:46;23.40;88.90
4755;DHT22;2391;47.212;7.542;2023-06-22T03:54:12;23.40;89.10
4755;DHT22;2391;47.212;7.542;2023-06-22T03:56:38;23.40;89.00
4755;DHT22;2391;47.212;7.542;2023-06-22T03:59:04;23.40;88.90
4755;DHT22;2391;47.212;7.542;2023-06-22T04:01:31;23.40;89.50
4755;DHT22;2391;47.212;7.542;2023-06-22T04:03:56;23.40;89.00
4755;DHT22;2391;47.212;7.542;2023-06-22T04:06:22;23.40;88.90
4755;DHT22;2391;47.212;7.542;2023-06-22T04:08:48;23.40;88.60
4755;DHT22;2391;47.212;7.542;2023-06-22T04:11:17;23.40;89.00
4755;DHT22;2391;47.212;7.542;2023-06-22T04:13:44;23.30;88.90
4755;DHT22;2391;47.212;7.542;2023-06-22T04:16:09;23.30;89.30
4755;DHT22;2391;47.212;7.542;2023-06-22T04:18:35;23.30;89.20
4755;DHT22;2391;47.212;7.542;2023-06-22T04:21:02;23.30;89.30
4755;DHT22;2391;47.212;7.542;2023-06-22T04:23:28;23.30;89.40
4755;DHT22;2391;47.212;7.542;2023-06-22T04:25:54;23.30;89.50
4755;DHT22;2391;47.212;7.542;2023-06-22T04:28:22;23.30;89.50
4755;DHT22;2391;47.212;7.542;2023-06-22T04:30:47;23.30;89.50
4755;DHT22;2391;47.212;7.542;2023-06-22T04:33:14;23.40;89.70
4755;DHT22;2391;47.212;7.542;2023-06-22T04:35:41;23.40;90.20
4755;DHT22;2391;47.212;7.542;2023-06-22T04:38:07;23.40;89.90
4755;DHT22;2391;47.212;7.542;2023-06-22T04:40:33;23.40;90.00
4755;DHT22;2391;47.212;7.542;2023-06-22T04:42:59;23.40;90.00
4755;DHT22;2391;47.212;7.542;2023-06-22T04:45:26;23.40;90.00
4755;DHT22;2391;47.212;7.542;2023-06-22T04:47:52;23.50;90.10
4755;DHT22;2391;47.212;7.542;2023-06-22T04:50:18;23.50;90.00
4755;DHT22;2391;47.212;7.542;2023-06-22T04:52:47;23.50;90.00
4755;DHT22;2391;47.212;7.542;2023-06-22T04:55:13;23.50;90.20
4755;DHT22;2391;47.212;7.542;2023-06-22T04:57:41;23.50;90.00
4755;DHT22;2391;47.212;7.542;2023-06-22T05:00:10;23.50;89.80
4755;DHT22;2391;47.212;7.542;2023-06-22T05:02:41;23.60;90.00
4755;DHT22;2391;47.212;7.542;2023-06-22T05:05:07;23.60;90.10
4755;DHT22;2391;47.212;7.542;2023-06-22T05:07:34;23.60;90.20
4755;DHT22;2391;47.212;7.542;2023-06-22T05:10:02;23.60;90.30
4755;DHT22;2391;47.212;7.542;2023-06-22T05:12:29;23.60;90.40
4755;DHT22;2391;47.212;7.542;2023-06-22T05:14:56;23.60;90.40
4755;DHT22;2391;47.212;7.542;2023-06-22T05:17:22;23.60;90.60
4755;DHT22;2391;47.212;7.542;2023-06-22T05:19:48;23.60;90.70
4755;DHT22;2391;47.212;7.542;2023-06-22T05:22:17;23.50;90.70
4755;DHT22;2391;47.212;7.542;2023-06-22T05:24:43;23.60;90.80
4755;DHT22;2391;47.212;7.542;2023-06-22T05:27:10;23.60;90.80
4755;DHT22;2391;47.212;7.542;2023-06-22T05:29:36;23.60;90.80
4755;DHT22;2391;47.212;7.542;2023-06-22T05:32:03;23.60;90.70
4755;DHT22;2391;47.212;7.542;2023-06-22T05:34:29;23.70;90.50
4755;DHT22;2391;47.212;7.542;2023-06-22T05:36:54;23.80;90.40
4755;DHT22;2391;47.212;7.542;2023-06-22T05:39:20;23.80;90.30
4755;DHT22;2391;47.212;7.542;2023-06-22T05:41:46;23.80;90.30
4755;DHT22;2391;47.212;7.542;2023-06-22T05:44:12;23.90;90.20
4755;DHT22;2391;47.212;7.542;2023-06-22T05:46:42;24.00;90.30
4755;DHT22;2391;47.212;7.542;2023-06-22T05:49:15;24.00;90.10
4755;DHT22;2391;47.212;7.542;2023-06-22T05:51:41;24.10;90.20
4755;DHT22;2391;47.212;7.542;2023-06-22T05:54:07;24.10;90.40
4755;DHT22;2391;47.212;7.542;2023-06-22T05:56:34;24.10;90.40
4755;DHT22;2391;47.212;7.542;2023-06-22T05:59:00;24.10;90.70
4755;DHT22;2391;47.212;7.542;2023-06-22T06:01:26;24.20;90.60
4755;DHT22;2391;47.212;7.542;2023-06-22T06:03:52;24.10;90.10
4755;DHT22;2391;47.212;7.542;2023-06-22T06:06:19;24.10;90.40
4755;DHT22;2391;47.212;7.542;2023-06-22T06:08:49;24.20;90.00
4755;DHT22;2391;47.212;7.542;2023-06-22T06:11:15;24.20;90.00
4755;DHT22;2391;47.212;7.542;2023-06-22T06:13:41;24.40;90.20
4755;DHT22;2391;47.212;7.542;2023-06-22T06:16:07;24.50;90.20
4755;DHT22;2391;47.212;7.542;2023-06-22T06:18:32;24.50;90.00
4755;DHT22;2391;47.212;7.542;2023-06-22T06:20:58;24.60;90.00
4755;DHT22;2391;47.212;7.542;2023-06-22T06:23:24;24.60;90.30
4755;DHT22;2391;47.212;7.542;2023-06-22T06:25:49;24.50;90.50
4755;DHT22;2391;47.212;7.542;2023-06-22T06:28:15;24.40;90.80
4755;DHT22;2391;47.212;7.542;2023-06-22T06:30:42;24.30;91.30
4755;DHT22;2391;47.212;7.542;2023-06-22T06:33:08;24.00;91.60
4755;DHT22;2391;47.212;7.542;2023-06-22T06:35:34;23.80;92.00
4755;DHT22;2391;47.212;7.542;2023-06-22T06:38:00;23.50;92.30
4755;DHT22;2391;47.212;7.542;2023-06-22T06:40:26;23.40;92.60
4755;DHT22;2391;47.212;7.542;2023-06-22T06:42:51;23.40;92.50
4755;DHT22;2391;47.212;7.542;2023-06-22T06:45:20;23.30;92.60
4755;DHT22;2391;47.212;7.542;2023-06-22T06:47:48;23.30;92.70
4755;DHT22;2391;47.212;7.542;2023-06-22T06:50:15;23.30;92.70
4755;DHT22;2391;47.212;7.542;2023-06-22T06:52:41;23.30;92.70
4755;DHT22;2391;47.212;7.542;2023-06-22T06:55:08;23.40;92.80
4755;DHT22;2391;47.212;7.542;2023-06-22T06:57:36;23.50;92.80
4755;DHT22;2391;47.212;7.542;2023-06-22T07:00:05;23.50;92.80
4755;DHT22;2391;47.212;7.542;2023-06-22T07:02:33;23.60;92.70
4755;DHT22;2391;47.212;7.542;2023-06-22T07:04:58;23.70;92.60
4755;DHT22;2391;47.212;7.542;2023-06-22T07:07:24;23.80;93.00
4755;DHT22;2391;47.212;7.542;2023-06-22T07:09:50;24.00;93.00
4755;DHT22;2391;47.212;7.542;2023-06-22T07:12:16;24.10;92.70
4755;DHT22;2391;47.212;7.542;2023-06-22T07:14:42;24.20;92.60
4755;DHT22;2391;47.212;7.542;2023-06-22T07:17:07;24.20;92.30
4755;DHT22;2391;47.212;7.542;2023-06-22T07:19:33;24.20;92.20
4755;DHT22;2391;47.212;7.542;2023-06-22T07:21:59;24.20;92.40
4755;DHT22;2391;47.212;7.542;2023-06-22T07:24:25;24.20;92.20
4755;DHT22;2391;47.212;7.542;2023-06-22T07:26:51;24.20;92.10
4755;DHT22;2391;47.212;7.542;2023-06-22T07:29:17;24.30;92.20
4755;DHT22;2391;47.212;7.542;2023-06-22T07:31:45;24.40;92.20
4755;DHT22;2391;47.212;7.542;2023-06-22T07:34:11;24.50;91.80
4755;DHT22;2391;47.212;7.542;2023-06-22T07:36:38;24.60;91.50
4755;DHT22;2391;47.212;7.542;2023-06-22T07:39:03;24.60;91.50
4755;DHT22;2391;47.212;7.542;2023-06-22T07:41:30;24.70;91.40
4755;DHT22;2391;47.212;7.542;2023-06-22T07:43:56;24.80;91.10
4755;DHT22;2391;47.212;7.542;2023-06-22T07:46:22;24.80;91.00
4755;DHT22;2391;47.212;7.542;2023-06-22T07:48:48;24.80;91.10
4755;DHT22;2391;47.212;7.542;2023-06-22T07:51:14;24.80;91.00
4755;DHT22;2391;47.212;7.542;2023-06-22T07:53:41;24.80;91.30
4755;DHT22;2391;47.212;7.542;2023-06-22T07:56:10;25.00;91.20
4755;DHT22;2391;47.212;7.542;2023-06-22T07:58:36;25.10;91.20
4755;DHT22;2391;47.212;7.542;2023-06-22T08:01:02;25.10;90.60
4755;DHT22;2391;47.212;7.542;2023-06-22T08:03:29;25.10;90.70
4755;DHT22;2391;47.212;7.542;2023-06-22T08:05:55;25.20;90.90
4755;DHT22;2391;47.212;7.542;2023-06-22T08:08:20;25.20;90.50
4755;DHT22;2391;47.212;7.542;2023-06-22T08:10:46;25.30;90.30
4755;DHT22;2391;47.212;7.542;2023-06-22T08:13:12;25.40;90.30
4755;DHT22;2391;47.212;7.542;2023-06-22T08:15:38;25.40;90.20
4755;DHT22;2391;47.212;7.542;2023-06-22T08:18:04;25.50;90.20
4755;DHT22;2391;47.212;7.542;2023-06-22T08:20:30;25.50;90.30
4755;DHT22;2391;47.212;7.542;2023-06-22T08:22:57;25.70;90.40
4755;DHT22;2391;47.212;7.542;2023-06-22T08:25:23;25.80;90.30
4755;DHT22;2391;47.212;7.542;2023-06-22T08:27:49;25.90;90.20
4755;DHT22;2391;47.212;7.542;2023-06-22T08:30:16;26.00;89.90
4755;DHT22;2391;47.212;7.542;2023-06-22T08:32:44;26.10;90.10
4755;DHT22;2391;47.212;7.542;2023-06-22T08:35:09;26.10;90.30
4755;DHT22;2391;47.212;7.542;2023-06-22T08:37:36;26.20;90.20
4755;DHT22;2391;47.212;7.542;2023-06-22T08:40:04;26.30;90.30
4755;DHT22;2391;47.212;7.542;2023-06-22T08:42:31;26.40;90.20
4755;DHT22;2391;47.212;7.542;2023-06-22T08:44:57;26.40;90.00
4755;DHT22;2391;47.212;7.542;2023-06-22T08:47:24;26.50;89.70
4755;DHT22;2391;47.212;7.542;2023-06-22T08:49:50;26.60;89.20
4755;DHT22;2391;47.212;7.542;2023-06-22T08:52:17;26.60;89.30
4755;DHT22;2391;47.212;7.542;2023-06-22T08:54:46;26.50;88.80
4755;DHT22;2391;47.212;7.542;2023-06-22T08:57:12;26.60;89.30
4755;DHT22;2391;47.212;7.542;2023-06-22T08:59:37;26.60;89.10
4755;DHT22;2391;47.212;7.542;2023-06-22T09:02:04;26.60;89.60
4755;DHT22;2391;47.212;7.542;2023-06-22T09:04:29;26.60;88.80
4755;DHT22;2391;47.212;7.542;2023-06-22T09:06:57;26.40;89.80
4755;DHT22;2391;47.212;7.542;2023-06-22T09:09:23;26.40;90.10
4755;DHT22;2391;47.212;7.542;2023-06-22T09:11:49;26.40;89.90
4755;DHT22;2391;47.212;7.542;2023-06-22T09:14:14;26.40;89.60
4755;DHT22;2391;47.212;7.542;2023-06-22T09:16:40;26.50;90.00
4755;DHT22;2391;47.212;7.542;2023-06-22T09:19:06;26.60;89.90
4755;DHT22;2391;47.212;7.542;2023-06-22T09:21:31;26.60;89.10
4755;DHT22;2391;47.212;7.542;2023-06-22T09:23:57;26.70;87.80
4755;DHT22;2391;47.212;7.542;2023-06-22T09:26:23;26.70;87.80
4755;DHT22;2391;47.212;7.542;2023-06-22T09:28:49;26.80;88.10
4755;DHT22;2391;47.212;7.542;2023-06-22T09:31:15;26.80;88.00
4755;DHT22;2391;47.212;7.542;2023-06-22T09:33:42;26.90;87.80
4755;DHT22;2391;47.212;7.542;2023-06-22T09:36:10;26.90;87.80
4755;DHT22;2391;47.212;7.542;2023-06-22T09:38:36;26.90;87.80
4755;DHT22;2391;47.212;7.542;2023-06-22T09:41:05;27.00;87.80
4755;DHT22;2391;47.212;7.542;2023-06-22T09:43:32;27.10;88.30
4755;DHT22;2391;47.212;7.542;2023-06-22T09:46:00;27.10;88.40
4755;DHT22;2391;47.212;7.542;2023-06-22T09:48:27;27.10;88.20
4755;DHT22;2391;47.212;7.542;2023-06-22T09:50:52;27.10;88.00
4755;DHT22;2391;47.212;7.542;2023-06-22T09:53:18;27.10;87.90
4755;DHT22;2391;47.212;7.542;2023-06-22T09:55:47;27.20;88.10
4755;DHT22;2391;47.212;7.542;2023-06-22T09:58:13;27.30;88.00
4755;DHT22;2391;47.212;7.542;2023-06-22T10:00:38;27.30;88.00
4755;DHT22;2391;47.212;7.542;2023-06-22T10:03:04;27.40;87.90
4755;DHT22;2391;47.212;7.542;2023-06-22T10:05:30;27.40;87.50
4755;DHT22;2391;47.212;7.542;2023-06-22T10:07:57;27.30;86.90
4755;DHT22;2391;47.212;7.542;2023-06-22T10:10:23;27.30;86.80
4755;DHT22;2391;47.212;7.542;2023-06-22T10:12:57;27.30;87.50
4755;DHT22;2391;47.212;7.542;2023-06-22T10:15:23;27.30;86.80
4755;DHT22;2391;47.212;7.542;2023-06-22T10:17:49;27.30;87.30
4755;DHT22;2391;47.212;7.542;2023-06-22T10:20:15;27.20;87.30
4755;DHT22;2391;47.212;7.542;2023-06-22T10:22:44;27.20;88.10
4755;DHT22;2391;47.212;7.542;2023-06-22T10:25:12;27.20;87.70
4755;DHT22;2391;47.212;7.542;2023-06-22T10:27:38;27.10;87.50
4755;DHT22;2391;47.212;7.542;2023-06-22T10:30:08;27.20;87.50
4755;DHT22;2391;47.212;7.542;2023-06-22T10:32:35;27.20;87.70
4755;DHT22;2391;47.212;7.542;2023-06-22T10:35:02;27.10;88.00
4755;DHT22;2391;47.212;7.542;2023-06-22T10:37:27;27.10;88.20
4755;DHT22;2391;47.212;7.542;2023-06-22T10:39:53;27.00;88.40
4755;DHT22;2391;47.212;7.542;2023-06-22T10:42:19;27.00;88.70
4755;DHT22;2391;47.212;7.542;2023-06-22T10:44:44;27.00;89.40
4755;DHT22;2391;47.212;7.542;2023-06-22T10:47:10;27.00;88.80
4755;DHT22;2391;47.212;7.542;2023-06-22T10:49:38;26.90;89.00
4755;DHT22;2391;47.212;7.542;2023-06-22T10:52:08;26.80;88.80
4755;DHT22;2391;47.212;7.542;2023-06-22T10:54:35;26.70;89.20
4755;DHT22;2391;47.212;7.542;2023-06-22T10:57:02;26.60;90.00
4755;DHT22;2391;47.212;7.542;2023-06-22T10:59:28;26.60;90.10
4755;DHT22;2391;47.212;7.542;2023-06-22T11:01:55;26.60;90.20
4755;DHT22;2391;47.212;7.542;2023-06-22T11:04:21;26.60;90.30
4755;DHT22;2391;47.212;7.542;2023-06-22T11:06:48;26.80;90.50
4755;DHT22;2391;47.212;7.542;2023-06-22T11:09:16;26.90;90.60
4755;DHT22;2391;47.212;7.542;2023-06-22T11:11:49;26.90;90.50
4755;DHT22;2391;47.212;7.542;2023-06-22T11:14:15;27.00;90.40
4755;DHT22;2391;47.212;7.542;2023-06-22T11:16:41;27.00;90.40
4755;DHT22;2391;47.212;7.542;2023-06-22T11:19:07;27.00;90.20
4755;DHT22;2391;47.212;7.542;2023-06-22T11:21:33;27.00;90.20
4755;DHT22;2391;47.212;7.542;2023-06-22T11:23:59;27.10;90.10
4755;DHT22;2391;47.212;7.542;2023-06-22T11:26:26;27.10;89.70
4755;DHT22;2391;47.212;7.542;2023-06-22T11:28:55;27.10;89.90
4755;DHT22;2391;47.212;7.542;2023-06-22T11:31:21;27.20;89.90
4755;DHT22;2391;47.212;7.542;2023-06-22T11:33:46;27.20;89.90
4755;DHT22;2391;47.212;7.542;2023-06-22T11:36:14;27.20;89.90
4755;DHT22;2391;47.212;7.542;2023-06-22T11:38:40;27.20;88.80
4755;DHT22;2391;47.212;7.542;2023-06-22T11:41:06;27.20;88.80
4755;DHT22;2391;47.212;7.542;2023-06-22T11:43:33;27.20;87.60
4755;DHT22;2391;47.212;7.542;2023-06-22T11:45:59;27.20;87.20
4755;DHT22;2391;47.212;7.542;2023-06-22T11:48:25;27.20;87.00
4755;DHT22;2391;47.212;7.542;2023-06-22T11:50:51;27.20;87.00
4755;DHT22;2391;47.212;7.542;2023-06-22T11:53:17;27.10;86.70
4755;DHT22;2391;47.212;7.542;2023-06-22T11:55:44;27.10;87.30
4755;DHT22;2391;47.212;7.542;2023-06-22T11:58:09;27.10;87.00
4755;DHT22;2391;47.212;7.542;2023-06-22T12:00:37;27.20;86.60
4755;DHT22;2391;47.212;7.542;2023-06-22T12:03:03;27.30;86.90
4755;DHT22;2391;47.212;7.542;2023-06-22T12:05:29;27.30;86.80
4755;DHT22;2391;47.212;7.542;2023-06-22T12:07:54;27.30;86.70
4755;DHT22;2391;47.212;7.542;2023-06-22T12:10:22;27.30;87.30
4755;DHT22;2391;47.212;7.542;2023-06-22T12:12:48;27.30;88.00
4755;DHT22;2391;47.212;7.542;2023-06-22T12:15:14;27.30;87.20
4755;DHT22;2391;47.212;7.542;2023-06-22T12:17:40;27.30;87.70
4755;DHT22;2391;47.212;7.542;2023-06-22T12:20:07;27.30;86.90
4755;DHT22;2391;47.212;7.542;2023-06-22T12:22:34;27.30;87.20
4755;DHT22;2391;47.212;7.542;2023-06-22T12:25:01;27.30;86.30
4755;DHT22;2391;47.212;7.542;2023-06-22T12:27:27;27.30;85.60
4755;DHT22;2391;47.212;7.542;2023-06-22T12:29:52;27.30;86.50
4755;DHT22;2391;47.212;7.542;2023-06-22T12:32:18;27.30;87.40
4755;DHT22;2391;47.212;7.542;2023-06-22T12:34:44;27.40;86.90
4755;DHT22;2391;47.212;7.542;2023-06-22T12:37:10;27.40;86.40
4755;DHT22;2391;47.212;7.542;2023-06-22T12:39:36;27.50;86.10
4755;DHT22;2391;47.212;7.542;2023-06-22T12:42:02;27.60;86.00
4755;DHT22;2391;47.212;7.542;2023-06-22T12:44:28;27.70;86.20
4755;DHT22;2391;47.212;7.542;2023-06-22T12:46:54;27.70;86.10
4755;DHT22;2391;47.212;7.542;2023-06-22T12:49:20;27.80;86.10
4755;DHT22;2391;47.212;7.542;2023-06-22T12:51:45;27.90;85.60
4755;DHT22;2391;47.212;7.542;2023-06-22T12:54:11;27.90;85.30
4755;DHT22;2391;47.212;7.542;2023-06-22T12:56:38;28.00;84.80
4755;DHT22;2391;47.212;7.542;2023-06-22T12:59:04;28.10;84.70
4755;DHT22;2391;47.212;7.542;2023-06-22T13:01:31;28.10;86.50
4755;DHT22;2391;47.212;7.542;2023-06-22T13:04:00;28.10;84.90
4755;DHT22;2391;47.212;7.542;2023-06-22T13:06:26;28.10;84.00
4755;DHT22;2391;47.212;7.542;2023-06-22T13:08:52;28.10;84.60
4755;DHT22;2391;47.212;7.542;2023-06-22T13:11:18;28.10;85.10
4755;DHT22;2391;47.212;7.542;2023-06-22T13:13:44;28.00;84.40
4755;DHT22;2391;47.212;7.542;2023-06-22T13:16:11;28.00;84.60
4755;DHT22;2391;47.212;7.542;2023-06-22T13:18:37;27.90;85.00
4755;DHT22;2391;47.212;7.542;2023-06-22T13:21:03;27.90;85.40
4755;DHT22;2391;47.212;7.542;2023-06-22T13:23:29;27.80;84.40
4755;DHT22;2391;47.212;7.542;2023-06-22T13:25:55;27.80;85.30
4755;DHT22;2391;47.212;7.542;2023-06-22T13:28:21;27.80;86.20
4755;DHT22;2391;47.212;7.542;2023-06-22T13:30:47;27.80;87.40
4755;DHT22;2391;47.212;7.542;2023-06-22T13:33:14;27.80;88.10
4755;DHT22;2391;47.212;7.542;2023-06-22T13:35:41;27.70;88.00
4755;DHT22;2391;47.212;7.542;2023-06-22T13:38:09;27.80;88.60
4755;DHT22;2391;47.212;7.542;2023-06-22T13:40:36;27.70;88.80
4755;DHT22;2391;47.212;7.542;2023-06-22T13:43:04;27.70;88.80
4755;DHT22;2391;47.212;7.542;2023-06-22T13:45:30;27.70;89.10
4755;DHT22;2391;47.212;7.542;2023-06-22T13:47:55;27.70;89.90
4755;DHT22;2391;47.212;7.542;2023-06-22T13:50:21;27.80;90.40
4755;DHT22;2391;47.212;7.542;2023-06-22T13:52:47;27.80;90.10
4755;DHT22;2391;47.212;7.542;2023-06-22T13:55:13;27.80;90.00
4755;DHT22;2391;47.212;7.542;2023-06-22T13:57:40;27.80;89.60
4755;DHT22;2391;47.212;7.542;2023-06-22T14:00:07;27.80;89.10
4755;DHT22;2391;47.212;7.542;2023-06-22T14:02:35;27.70;89.10
4755;DHT22;2391;47.212;7.542;2023-06-22T14:05:01;27.70;89.40
4755;DHT22;2391;47.212;7.542;2023-06-22T14:07:28;27.70;89.60
4755;DHT22;2391;47.212;7.542;2023-06-22T14:09:53;27.60;89.50
4755;DHT22;2391;47.212;7.542;2023-06-22T14:12:19;27.60;89.60
4755;DHT22;2391;47.212;7.542;2023-06-22T14:14:45;27.50;89.20
4755;DHT22;2391;47.212;7.542;2023-06-22T14:17:11;27.40;89.20
4755;DHT22;2391;47.212;7.542;2023-06-22T14:19:37;27.40;89.90
4755;DHT22;2391;47.212;7.542;2023-06-22T14:22:03;27.40;90.00
4755;DHT22;2391;47.212;7.542;2023-06-22T14:24:29;27.50;90.00
4755;DHT22;2391;47.212;7.542;2023-06-22T14:26:55;27.50;90.30
4755;DHT22;2391;47.212;7.542;2023-06-22T14:29:25;27.40;90.30
4755;DHT22;2391;47.212;7.542;2023-06-22T14:31:51;27.40;90.20
4755;DHT22;2391;47.212;7.542;2023-06-22T14:34:17;27.40;90.10
4755;DHT22;2391;47.212;7.542;2023-06-22T14:36:43;27.40;90.30
4755;DHT22;2391;47.212;7.542;2023-06-22T14:39:09;27.30;90.50
4755;DHT22;2391;47.212;7.542;2023-06-22T14:41:35;27.20;90.70
4755;DHT22;2391;47.212;7.542;2023-06-22T14:44:01;27.10;90.80
4755;DHT22;2391;47.212;7.542;2023-06-22T14:46:26;26.90;91.10
4755;DHT22;2391;47.212;7.542;2023-06-22T14:48:52;26.60;90.80
4755;DHT22;2391;47.212;7.542;2023-06-22T14:51:18;26.50;90.90
4755;DHT22;2391;47.212;7.542;2023-06-22T14:53:45;26.50;90.60
4755;DHT22;2391;47.212;7.542;2023-06-22T14:56:11;26.40;90.80
4755;DHT22;2391;47.212;7.542;2023-06-22T14:58:40;26.40;90.90
4755;DHT22;2391;47.212;7.542;2023-06-22T15:01:09;26.40;91.10
4755;DHT22;2391;47.212;7.542;2023-06-22T15:03:34;26.30;91.00
4755;DHT22;2391;47.212;7.542;2023-06-22T15:06:02;26.30;90.80
4755;DHT22;2391;47.212;7.542;2023-06-22T15:08:31;26.40;90.80
4755;DHT22;2391;47.212;7.542;2023-06-22T15:11:00;26.40;90.40
4755;DHT22;2391;47.212;7.542;2023-06-22T15:13:27;26.40;90.80
4755;DHT22;2391;47.212;7.542;2023-06-22T15:15:53;26.30;90.80
4755;DHT22;2391;47.212;7.542;2023-06-22T15:18:19;26.20;90.30
4755;DHT22;2391;47.212;7.542;2023-06-22T15:20:44;26.20;90.50
4755;DHT22;2391;47.212;7.542;2023-06-22T15:23:14;26.20;90.60
4755;DHT22;2391;47.212;7.542;2023-06-22T15:25:40;26.20;90.90
4755;DHT22;2391;47.212;7.542;2023-06-22T15:28:06;26.10;90.80
4755;DHT22;2391;47.212;7.542;2023-06-22T15:30:31;26.10;90.90
4755;DHT22;2391;47.212;7.542;2023-06-22T15:32:57;26.00;90.90
4755;DHT22;2391;47.212;7.542;2023-06-22T15:35:23;26.00;90.90
4755;DHT22;2391;47.212;7.542;2023-06-22T15:37:49;25.90;90.70
4755;DHT22;2391;47.212;7.542;2023-06-22T15:40:17;26.00;91.00
4755;DHT22;2391;47.212;7.542;2023-06-22T15:42:43;26.00;91.40
4755;DHT22;2391;47.212;7.542;2023-06-22T15:45:10;25.90;91.70
4755;DHT22;2391;47.212;7.542;2023-06-22T15:47:36;25.90;91.80
4755;DHT22;2391;47.212;7.542;2023-06-22T15:50:03;25.90;91.20
4755;DHT22;2391;47.212;7.542;2023-06-22T15:52:30;25.80;91.40
4755;DHT22;2391;47.212;7.542;2023-06-22T15:54:55;25.90;91.20
4755;DHT22;2391;47.212;7.542;2023-06-22T15:57:24;25.90;91.20
4755;DHT22;2391;47.212;7.542;2023-06-22T15:59:52;26.00;91.30
4755;DHT22;2391;47.212;7.542;2023-06-22T16:02:18;26.10;90.80
4755;DHT22;2391;47.212;7.542;2023-06-22T16:04:44;26.20;90.80